Time;durP1;ratioP1;P1;durP2;ratioP2;P2;SDS_P1;SDS_P2;PMS_P1;PMS_P2;Temp;Humidity;BMP_temperature;BMP_pressure;BME280_temperature;BME280_humidity;BME280_pressure;Samples;Min_cycle;Max_cycle;Signal;HPM_P1;HPM_P2
2022/03/12 00:02:10;;;;;;;;;6.33;3.00;;;;;11.72;67.29;100915.50;5092156;27;45450;-83
2022/03/12 00:04:35;;;;;;;;;4.00;2.67;;;;;11.70;67.53;100913.69;5092907;27;52460;-83
2022/03/12 00:07:01;;;;;;;;;2.00;2.00;;;;;11.68;67.53;100926.91;5093038;27;48127;-84
2022/03/12 00:09:26;;;;;;;;;3.00;2.00;;;;;11.62;67.24;100902.19;5091887;27;45327;-84
2022/03/12 00:11:56;;;;;;;;;4.33;3.00;;;;;11.64;67.40;100935.69;5075104;27;45868;-84
2022/03/12 00:14:22;;;;;;;;;3.33;2.00;;;;;11.65;67.34;100934.81;5091551;27;46783;-84
2022/03/12 00:16:49;;;;;;;;;5.00;3.00;;;;;11.66;67.07;100931.28;5074872;27;46592;-83
2022/03/12 00:19:14;;;;;;;;;2.00;2.00;;;;;11.66;67.03;100943.63;5093405;27;45560;-84
2022/03/12 00:21:42;;;;;;;;;3.00;2.00;;;;;11.60;67.00;100938.28;5091350;27;45516;-84
2022/03/12 00:24:10;;;;;;;;;2.67;2.67;;;;;11.62;67.17;100937.47;5106329;27;46368;-83
2022/03/12 00:26:40;;;;;;;;;2.00;2.00;;;;;11.66;67.04;100941.00;5090029;27;45355;-83
2022/03/12 00:29:07;;;;;;;;;2.67;2.67;;;;;11.70;66.91;100956.03;5093503;27;45572;-83
2022/03/12 00:31:33;;;;;;;;;1.00;1.00;;;;;11.74;66.94;100953.41;5091392;27;45392;-83
2022/03/12 00:33:58;;;;;;;;;4.00;2.00;;;;;11.83;66.76;100962.34;5092633;27;45887;-84
2022/03/12 00:36:24;;;;;;;;;3.00;2.00;;;;;11.89;66.80;100960.63;5092519;27;45539;-83
2022/03/12 00:38:49;;;;;;;;;5.00;2.00;;;;;11.90;66.57;100967.69;5093347;27;45403;-83
2022/03/12 00:41:16;;;;;;;;;8.00;2.33;;;;;11.94;66.48;100966.84;5104484;27;45279;-83
2022/03/12 00:43:41;;;;;;;;;4.00;1.33;;;;;11.97;66.30;100961.56;5092235;27;46841;-83
2022/03/12 00:46:16;;;;;;;;;4.67;2.33;;;;;11.97;66.28;100968.63;5092741;27;45532;-82
2022/03/12 00:48:42;;;;;;;;;5.00;3.67;;;;;11.97;66.07;100980.06;5087675;27;45362;-83
2022/03/12 00:51:08;;;;;;;;;4.00;2.33;;;;;11.96;66.20;100985.38;5090859;27;45587;-83
2022/03/12 00:53:34;;;;;;;;;3.00;3.00;;;;;11.87;66.21;100967.66;5092350;27;47416;-83
2022/03/12 00:55:59;;;;;;;;;3.00;3.00;;;;;11.92;65.89;100995.03;5091259;27;45369;-83
2022/03/12 00:58:25;;;;;;;;;3.33;2.00;;;;;11.87;66.15;100985.28;5091392;27;45531;-83
2022/03/12 01:00:50;;;;;;;;;3.67;3.67;;;;;11.86;66.10;101002.94;5091257;27;45623;-84
2022/03/12 01:03:16;;;;;;;;;4.67;3.00;;;;;11.85;66.09;100995.88;5091150;27;45740;-83
2022/03/12 01:05:45;;;;;;;;;6.33;3.00;;;;;11.84;66.05;100998.50;5081541;27;45512;-84
2022/03/12 01:08:10;;;;;;;;;3.00;2.00;;;;;11.86;66.02;101002.03;5077906;28;45307;-83
2022/03/12 01:10:36;;;;;;;;;4.00;3.00;;;;;11.87;65.88;101004.69;5077018;28;45587;-84
2022/03/12 01:13:01;;;;;;;;;3.00;3.00;;;;;11.90;65.99;101019.72;5078701;27;45498;-83
2022/03/12 01:15:27;;;;;;;;;4.00;2.00;;;;;11.91;66.09;101022.38;5077056;28;45338;-83
2022/03/12 01:17:52;;;;;;;;;5.00;3.33;;;;;11.89;65.81;101015.31;5077246;28;45759;-83
2022/03/12 01:20:22;;;;;;;;;3.00;3.00;;;;;11.98;65.58;101039.19;5060366;28;45450;-83
2022/03/12 01:22:49;;;;;;;;;3.33;2.33;;;;;12.00;65.89;101027.75;5068860;28;47534;-84
2022/03/12 01:25:15;;;;;;;;;3.00;3.00;;;;;12.03;65.68;101029.53;5078455;27;45413;-83
2022/03/12 01:27:41;;;;;;;;;2.00;2.00;;;;;12.04;65.68;101026.91;5078331;28;45366;-83
2022/03/12 01:30:15;;;;;;;;;4.00;3.00;;;;;11.96;65.89;101007.41;5078402;27;45291;-84
2022/03/12 01:32:40;;;;;;;;;5.00;2.00;;;;;12.00;65.55;101033.03;5076400;28;45596;-84
2022/03/12 01:35:06;;;;;;;;;2.00;2.00;;;;;11.93;65.51;101006.50;5078249;27;45350;-84
2022/03/12 01:37:32;;;;;;;;;3.67;1.00;;;;;11.90;65.73;101025.00;5078634;27;45298;-84
2022/03/12 01:39:57;;;;;;;;;1.33;1.33;;;;;11.85;65.60;101017.03;5078147;27;45452;-84
2022/03/12 01:42:27;;;;;;;;;7.00;3.33;;;;;11.80;65.63;101019.59;5077600;27;46353;-84
2022/03/12 01:44:53;;;;;;;;;4.00;3.00;;;;;11.70;65.79;101003.63;5077854;27;45312;-84
2022/03/12 01:47:20;;;;;;;;;4.00;3.00;;;;;11.73;65.50;101017.78;5078763;27;45445;-84
2022/03/12 01:49:50;;;;;;;;;3.00;3.00;;;;;11.65;65.84;101003.59;5076890;28;45574;-84
2022/03/12 01:52:16;;;;;;;;;5.67;1.67;;;;;11.69;65.58;101017.72;5075908;28;48272;-85
2022/03/12 01:54:42;;;;;;;;;9.00;3.00;;;;;11.63;65.94;101020.31;5078204;27;45445;-84
2022/03/12 01:57:11;;;;;;;;;7.33;3.00;;;;;11.63;66.00;101018.56;5077903;27;45152;-84
2022/03/12 01:59:37;;;;;;;;;3.33;2.00;;;;;11.74;66.21;101030.13;5076219;28;45615;-84
2022/03/12 02:02:06;;;;;;;;;7.33;3.00;;;;;11.82;65.85;101026.69;5059208;28;46006;-84
2022/03/12 02:04:31;;;;;;;;;2.00;2.00;;;;;11.87;65.80;101030.25;5076287;28;45586;-84
2022/03/12 02:07:00;;;;;;;;;4.00;3.00;;;;;11.89;65.66;101031.19;5077250;28;45576;-84
2022/03/12 02:09:25;;;;;;;;;2.00;2.00;;;;;11.88;65.75;101027.66;5076956;28;45311;-84
2022/03/12 02:11:51;;;;;;;;;2.67;2.00;;;;;11.85;65.63;101024.09;5075719;28;49621;-84
2022/03/12 02:14:20;;;;;;;;;3.00;3.00;;;;;11.92;65.32;101040.00;5075714;28;46273;-84
2022/03/12 02:16:59;;;;;;;;;3.67;2.33;;;;;11.89;65.42;101039.13;5076564;27;46165;-84
2022/03/12 02:19:26;;;;;;;;;3.33;2.00;;;;;11.93;65.27;101052.41;5077930;27;45536;-85
2022/03/12 02:22:05;;;;;;;;;4.00;1.00;;;;;11.92;65.48;101053.25;5076971;27;46474;-84
2022/03/12 02:24:31;;;;;;;;;3.67;3.00;;;;;11.84;65.58;101040.84;5076404;28;46156;-84
2022/03/12 02:26:58;;;;;;;;;4.00;2.67;;;;;11.89;65.36;101045.31;5075881;28;45679;-84
2022/03/12 02:29:24;;;;;;;;;4.00;2.67;;;;;11.91;64.99;101046.19;5076021;28;45445;-84
2022/03/12 02:31:56;;;;;;;;;3.67;2.33;;;;;11.96;65.16;101051.53;5076996;27;45415;-84
2022/03/12 02:34:42;;;;;;;;;3.00;3.00;;;;;11.92;65.00;101050.59;5075496;28;45604;-84
2022/03/12 02:37:09;;;;;;;;;3.00;2.00;;;;;11.97;64.92;101050.66;5077194;27;45349;-85
2022/03/12 02:39:38;;;;;;;;;4.67;4.67;;;;;11.93;64.84;101044.47;5076426;28;45565;-84
2022/03/12 02:42:04;;;;;;;;;3.67;2.33;;;;;11.95;64.82;101049.75;5075154;28;45639;-84
2022/03/12 02:44:30;;;;;;;;;3.00;3.00;;;;;11.99;64.87;101047.16;5059509;28;45627;-84
2022/03/12 02:47:26;;;;;;;;;3.00;3.00;;;;;12.02;65.00;101057.75;5077438;27;45790;-84
2022/03/12 02:49:56;;;;;;;;;2.00;2.00;;;;;12.00;64.58;101046.28;5073081;28;45542;-84
2022/03/12 02:52:23;;;;;;;;;3.00;2.00;;;;;11.99;64.80;101047.16;5076534;27;46956;-84
2022/03/12 02:54:50;;;;;;;;;3.00;3.00;;;;;11.97;64.72;101043.59;5075608;28;45457;-85
2022/03/12 02:57:16;;;;;;;;;8.00;4.67;;;;;12.02;64.93;101055.09;5075605;28;45308;-83
2022/03/12 02:59:44;;;;;;;;;7.33;2.33;;;;;12.02;64.75;101056.88;5076792;27;45578;-84
2022/03/12 03:02:13;;;;;;;;;3.00;3.00;;;;;12.00;64.48;101058.63;5075024;28;46378;-84
2022/03/12 03:04:41;;;;;;;;;3.00;3.00;;;;;11.94;64.69;101054.16;5058083;28;45320;-84
2022/03/12 03:07:08;;;;;;;;;3.33;2.00;;;;;11.98;64.73;101057.72;5075977;28;45304;-84
2022/03/12 03:09:35;;;;;;;;;5.33;3.00;;;;;12.00;64.95;101070.09;5058606;28;45724;-85
2022/03/12 03:12:09;;;;;;;;;4.00;4.00;;;;;11.94;64.52;101051.53;5070913;28;45904;-84
2022/03/12 03:14:35;;;;;;;;;3.33;3.33;;;;;11.97;64.62;101058.59;5073717;28;45803;-84
2022/03/12 03:17:01;;;;;;;;;5.33;4.00;;;;;11.88;64.70;101048.81;5077153;27;45499;-84
2022/03/12 03:19:27;;;;;;;;;3.33;3.00;;;;;11.86;64.94;101058.50;5058712;28;45309;-83
2022/03/12 03:21:53;;;;;;;;;3.67;3.33;;;;;11.84;64.68;101057.59;5074916;27;48082;-84
2022/03/12 03:24:20;;;;;;;;;5.00;3.33;;;;;11.82;64.79;101054.03;5077218;28;45533;-84
2022/03/12 03:26:50;;;;;;;;;4.00;3.00;;;;;11.78;64.48;101062.81;5079282;27;45326;-85
2022/03/12 03:29:16;;;;;;;;;4.33;2.00;;;;;11.75;64.99;101057.47;5075245;28;45591;-84
2022/03/12 03:31:41;;;;;;;;;3.33;3.00;;;;;11.74;64.93;101061.88;5076442;27;45631;-85
2022/03/12 03:34:07;;;;;;;;;2.00;2.00;;;;;11.72;64.98;101055.69;5055159;28;45531;-85
2022/03/12 03:36:32;;;;;;;;;6.33;3.67;;;;;11.78;64.82;101063.69;5071393;28;45335;-84
2022/03/12 03:38:58;;;;;;;;;4.00;3.00;;;;;11.77;65.08;101061.91;5074762;28;45525;-85
2022/03/12 03:41:27;;;;;;;;;3.33;2.00;;;;;11.83;64.79;101061.13;5074642;28;46633;-85
2022/03/12 03:43:52;;;;;;;;;2.67;2.67;;;;;11.87;64.75;101067.31;5073774;28;49475;-84
2022/03/12 03:46:21;;;;;;;;;3.00;3.00;;;;;11.86;64.70;101069.06;5075466;27;45815;-84
2022/03/12 03:48:52;;;;;;;;;2.00;2.00;;;;;11.85;64.78;101061.13;5076559;27;45314;-84
2022/03/12 03:51:18;;;;;;;;;3.00;3.00;;;;;11.84;64.65;101062.00;5070382;28;46994;-84
2022/03/12 03:53:44;;;;;;;;;3.00;1.67;;;;;11.80;64.60;101055.75;5075735;27;45546;-84
2022/03/12 03:56:09;;;;;;;;;3.00;1.00;;;;;11.81;64.47;101065.47;5075000;28;45820;-84
2022/03/12 03:58:37;;;;;;;;;2.67;2.67;;;;;11.75;64.68;101057.47;5074931;28;45487;-86
2022/03/12 04:01:17;;;;;;;;;3.00;3.00;;;;;11.73;64.70;101056.56;5073152;27;45469;-84
2022/03/12 04:03:49;;;;;;;;;5.00;4.00;;;;;11.70;64.76;101056.53;5074581;27;45559;-83
2022/03/12 04:06:16;;;;;;;;;3.67;2.00;;;;;11.64;65.01;101060.00;5076461;27;45568;-84
2022/03/12 04:08:42;;;;;;;;;6.67;3.33;;;;;11.58;64.84;101052.00;5074747;28;45592;-84
2022/03/12 04:11:08;;;;;;;;;6.67;3.00;;;;;11.60;65.22;101073.19;5074533;28;45620;-84
2022/03/12 04:13:33;;;;;;;;;3.33;3.33;;;;;11.54;65.20;101068.72;5074445;28;45408;-84
2022/03/12 04:16:01;;;;;;;;;4.67;2.00;;;;;11.54;65.24;101068.72;5074851;28;47083;-84
2022/03/12 04:18:27;;;;;;;;;3.00;2.00;;;;;11.54;65.24;101068.72;5074982;28;45620;-85
2022/03/12 04:21:04;;;;;;;;;3.67;2.00;;;;;11.51;65.20;101072.22;5075403;27;45705;-85
2022/03/12 04:23:30;;;;;;;;;3.00;2.67;;;;;11.52;65.41;101084.56;5073866;28;45389;-84
2022/03/12 04:25:56;;;;;;;;;1.67;1.67;;;;;11.50;65.10;101078.38;5074671;28;45385;-84
2022/03/12 04:28:26;;;;;;;;;1.33;1.33;;;;;11.47;65.38;101072.16;5071055;27;45355;-84
2022/03/12 04:30:57;;;;;;;;;7.00;3.00;;;;;11.48;65.33;101082.75;5104177;27;45735;-84
2022/03/12 04:33:23;;;;;;;;;3.00;3.00;;;;;11.46;65.30;101075.69;5075300;28;45259;-85
2022/03/12 04:35:48;;;;;;;;;3.00;3.00;;;;;11.53;65.57;101088.09;5074311;28;45792;-84
2022/03/12 04:38:15;;;;;;;;;4.00;2.00;;;;;11.50;65.28;101088.97;5074481;28;45235;-85
2022/03/12 04:40:44;;;;;;;;;2.00;2.00;;;;;11.47;65.56;101088.03;5077475;27;46231;-85
2022/03/12 04:43:11;;;;;;;;;4.33;3.00;;;;;11.48;65.31;101089.81;5078448;27;45812;-85
2022/03/12 04:45:37;;;;;;;;;10.00;4.67;;;;;11.51;65.42;101096.03;5079248;27;45472;-84
2022/03/12 04:48:02;;;;;;;;;3.00;3.00;;;;;11.51;65.31;101084.56;5079738;27;45346;-84
2022/03/12 04:50:28;;;;;;;;;2.00;2.00;;;;;11.51;65.47;101088.09;5070174;27;47739;-84
2022/03/12 04:52:57;;;;;;;;;4.00;2.00;;;;;11.55;65.25;101086.34;5078736;27;45541;-84
2022/03/12 04:55:25;;;;;;;;;7.33;3.00;;;;;11.61;65.46;101086.44;5077351;28;45645;-84
2022/03/12 04:57:52;;;;;;;;;4.00;2.00;;;;;11.64;65.17;101093.50;5061343;28;45299;-85
2022/03/12 05:00:28;;;;;;;;;3.00;3.00;;;;;11.65;65.19;101096.16;5057600;28;47628;-84
2022/03/12 05:03:13;;;;;;;;;4.00;3.00;;;;;11.68;65.11;101101.50;5076259;28;45473;-85
2022/03/12 05:05:43;;;;;;;;;5.33;2.00;;;;;11.70;65.06;101104.16;5078430;28;45536;-83
2022/03/12 05:08:15;;;;;;;;;3.00;3.00;;;;;11.70;65.23;101104.16;5078697;27;45489;-84
2022/03/12 05:10:44;;;;;;;;;4.33;2.00;;;;;11.69;64.97;101107.66;5059218;28;47736;-85
2022/03/12 05:13:22;;;;;;;;;4.00;2.00;;;;;11.63;64.69;101107.59;5078290;27;45265;-85
2022/03/12 05:15:52;;;;;;;;;2.67;2.67;;;;;11.59;65.02;101111.06;5077654;28;45430;-84
2022/03/12 05:18:18;;;;;;;;;3.67;3.67;;;;;11.59;65.31;101108.44;5076936;28;45304;-84
2022/03/12 05:20:44;;;;;;;;;7.33;2.33;;;;;11.60;64.90;101115.50;5060014;28;46481;-86
2022/03/12 05:23:09;;;;;;;;;4.00;3.00;;;;;11.68;65.09;101127.06;5094171;27;45427;-85
2022/03/12 05:25:35;;;;;;;;;3.00;3.00;;;;;11.70;64.79;101120.00;5077447;28;45418;-84
2022/03/12 05:28:00;;;;;;;;;4.33;3.00;;;;;11.67;64.88;101107.66;5078513;27;45258;-85
2022/03/12 05:30:27;;;;;;;;;4.67;3.00;;;;;11.67;64.77;101112.94;5077197;28;46007;-86
2022/03/12 05:32:53;;;;;;;;;5.33;3.00;;;;;11.67;65.00;101123.53;5076629;28;45365;-85
2022/03/12 05:35:20;;;;;;;;;4.33;3.00;;;;;11.64;64.81;101114.66;5076647;28;45576;-84
2022/03/12 05:37:51;;;;;;;;;3.00;3.00;;;;;11.60;64.89;101120.78;5079014;27;45358;-85
2022/03/12 05:40:25;;;;;;;;;6.33;3.00;;;;;11.59;64.93;101125.19;5078503;27;46099;-85
2022/03/12 05:42:51;;;;;;;;;4.25;3.75;;;;;11.49;64.75;101112.72;5078121;27;45601;-85
2022/03/12 05:45:24;;;;;;;;;5.00;2.67;;;;;11.53;64.75;101131.28;5078172;28;45595;-85
2022/03/12 05:47:55;;;;;;;;;10.33;5.00;;;;;11.49;64.88;101128.59;5078136;27;45544;-84
2022/03/12 05:50:21;;;;;;;;;4.00;3.00;;;;;11.50;64.92;101128.63;5076529;28;45630;-85
2022/03/12 05:52:49;;;;;;;;;10.00;4.00;;;;;11.47;65.08;101127.69;5076517;28;45322;-84
2022/03/12 05:55:17;;;;;;;;;6.50;4.00;;;;;11.41;65.04;101124.97;5076651;28;45500;-85
2022/03/12 05:57:43;;;;;;;;;4.50;3.50;;;;;11.43;64.96;101124.13;5060087;28;45396;-85
2022/03/12 06:00:11;;;;;;;;;3.00;3.00;;;;;11.41;65.20;101144.38;5077871;28;45616;-85
2022/03/12 06:02:47;;;;;;;;;7.33;3.00;;;;;11.41;65.02;101140.84;5076946;28;45374;-84
2022/03/12 06:05:14;;;;;;;;;8.75;4.25;;;;;11.38;65.08;101141.69;5078256;27;45444;-85
2022/03/12 06:07:44;;;;;;;;;9.67;2.00;;;;;11.30;65.03;101131.91;5078028;27;46533;-85
2022/03/12 06:10:09;;;;;;;;;11.67;4.33;;;;;11.27;65.06;101140.66;5060235;28;46373;-84
2022/03/12 06:12:35;;;;;;;;;3.00;3.00;;;;;11.25;65.12;101142.41;5077319;27;45606;-85
2022/03/12 06:15:04;;;;;;;;;4.25;3.50;;;;;11.21;65.61;101144.09;5076253;28;45480;-84
2022/03/12 06:17:32;;;;;;;;;5.75;4.00;;;;;11.20;65.34;101152.03;5076984;28;45560;-85
2022/03/12 06:19:57;;;;;;;;;6.25;3.00;;;;;11.17;65.47;101151.97;5078961;28;45677;-85
2022/03/12 06:22:23;;;;;;;;;4.00;3.75;;;;;11.10;65.43;101148.38;5092747;27;45421;-85
2022/03/12 06:24:49;;;;;;;;;8.75;5.00;;;;;11.10;65.51;101155.41;5076204;28;45299;-87
2022/03/12 06:27:17;;;;;;;;;4.50;4.50;;;;;11.12;65.63;101151.03;5074943;27;45477;-86
2022/03/12 06:29:43;;;;;;;;;7.00;5.75;;;;;11.19;65.51;101163.47;5057283;28;46102;-87
2022/03/12 06:32:10;;;;;;;;;7.75;7.00;;;;;11.19;65.43;101169.66;5058093;28;45408;-88
2022/03/12 06:34:35;;;;;;;;;6.75;5.00;;;;;11.17;65.66;101166.06;5060447;28;45393;-87
2022/03/12 06:37:01;;;;;;;;;7.00;4.25;;;;;11.23;65.73;101182.00;5073983;27;46120;-87
2022/03/12 06:39:26;;;;;;;;;8.00;5.00;;;;;11.26;65.59;101170.59;5072552;27;46424;-86
2022/03/12 06:41:53;;;;;;;;;10.00;7.75;;;;;11.29;65.34;101178.56;5075072;28;45323;-86
2022/03/12 06:44:19;;;;;;;;;7.25;5.00;;;;;11.32;65.53;101183.91;5075495;28;45425;-85
2022/03/12 06:46:45;;;;;;;;;5.00;4.75;;;;;11.33;65.17;101190.06;5074164;27;45603;-87
2022/03/12 06:49:10;;;;;;;;;3.33;2.67;;;;;11.33;65.41;101188.31;5075181;28;46241;-86
2022/03/12 06:51:38;;;;;;;;;4.00;3.00;;;;;11.34;65.13;101181.28;5077194;27;45481;-86
2022/03/12 06:54:04;;;;;;;;;5.00;3.67;;;;;11.33;65.26;101198.91;5060984;28;45485;-86
2022/03/12 06:57:04;;;;;;;;;3.33;3.33;;;;;11.37;64.99;101207.75;5075654;28;45394;-85
2022/03/12 06:59:34;;;;;;;;;5.00;3.00;;;;;11.35;65.02;101220.97;5073621;28;47066;-86
2022/03/12 07:01:59;;;;;;;;;3.00;3.00;;;;;11.37;65.04;101218.34;5058613;27;45517;-85
2022/03/12 07:04:25;;;;;;;;;5.00;3.00;;;;;11.35;64.92;101234.19;5076140;27;45588;-86
2022/03/12 07:06:50;;;;;;;;;7.67;4.33;;;;;11.31;64.46;101228.84;5075892;28;45415;-86
2022/03/12 07:09:18;;;;;;;;;10.67;4.33;;;;;11.35;64.76;101250.06;5058506;28;45890;-85
2022/03/12 07:11:44;;;;;;;;;8.00;4.00;;;;;11.29;64.82;101228.78;5075014;28;48223;-86
2022/03/12 07:14:10;;;;;;;;;4.00;4.00;;;;;11.37;64.79;101243.03;5076464;27;45802;-86
2022/03/12 07:16:35;;;;;;;;;5.00;4.00;;;;;11.34;64.58;101236.78;5077101;27;45394;-85
2022/03/12 07:19:01;;;;;;;;;5.00;4.00;;;;;11.35;64.65;101235.94;5074826;28;55174;-85
2022/03/12 07:21:27;;;;;;;;;7.67;4.67;;;;;11.40;64.50;101244.81;5076212;27;45674;-85
2022/03/12 07:23:53;;;;;;;;;3.00;3.00;;;;;11.40;64.40;101243.06;5075298;28;45335;-87
2022/03/12 07:26:20;;;;;;;;;7.00;4.00;;;;;11.41;64.44;101247.50;5076514;27;45465;-86
2022/03/12 07:28:46;;;;;;;;;8.75;4.50;;;;;11.40;64.46;101260.66;5075979;28;46409;-86
2022/03/12 07:31:15;;;;;;;;;4.67;3.33;;;;;11.38;64.47;101250.06;5075088;28;45441;-85
2022/03/12 07:33:42;;;;;;;;;5.00;5.00;;;;;11.45;64.18;101251.97;5074908;28;45551;-85
2022/03/12 07:36:09;;;;;;;;;4.33;4.00;;;;;11.49;64.37;101252.88;5076730;27;45486;-84
2022/03/12 07:38:35;;;;;;;;;8.67;4.00;;;;;11.53;64.17;101257.34;5074081;27;47434;-86
2022/03/12 07:41:07;;;;;;;;;5.00;5.00;;;;;11.58;64.12;101249.47;5075965;27;45393;-85
2022/03/12 07:43:33;;;;;;;;;2.00;2.00;;;;;11.59;64.14;101253.91;5075855;28;45382;-86
2022/03/12 07:45:58;;;;;;;;;4.00;4.00;;;;;11.63;63.99;101253.06;5058036;28;45347;-85
2022/03/12 07:48:24;;;;;;;;;3.75;3.75;;;;;11.66;64.04;101258.38;5074771;27;47199;-85
2022/03/12 07:50:52;;;;;;;;;8.00;3.00;;;;;11.64;63.77;101244.28;5075927;27;45397;-85
2022/03/12 07:53:18;;;;;;;;;7.75;4.00;;;;;11.71;63.85;101254.94;5160916;22;45576;-83
2022/03/12 07:55:43;;;;;;;;;6.75;3.50;;;;;11.74;63.78;101251.47;5020073;28;46160;-84
2022/03/12 07:58:09;;;;;;;;;8.75;5.00;;;;;11.70;63.59;101257.56;5013652;28;49979;-85
2022/03/12 08:00:34;;;;;;;;;3.25;3.25;;;;;11.75;63.68;101269.09;5022561;28;45332;-84
2022/03/12 08:03:00;;;;;;;;;4.00;4.00;;;;;11.75;63.71;101270.00;5004183;28;45564;-84
2022/03/12 08:05:26;;;;;;;;;4.25;3.25;;;;;11.80;63.69;101272.69;5016089;28;45540;-84
2022/03/12 08:07:53;;;;;;;;;4.50;3.00;;;;;11.83;63.45;101280.72;5001221;28;46546;-83
2022/03/12 08:10:19;;;;;;;;;4.00;4.00;;;;;11.84;63.67;101281.59;4995390;28;46126;-83
2022/03/12 08:12:46;;;;;;;;;4.00;4.00;;;;;11.80;63.53;101278.00;5016291;28;45837;-83
2022/03/12 08:15:11;;;;;;;;;4.00;4.00;;;;;11.89;63.54;101291.38;5001277;28;45567;-83
2022/03/12 08:17:37;;;;;;;;;7.33;4.67;;;;;11.94;63.50;101297.63;5000629;28;46728;-83
2022/03/12 08:20:05;;;;;;;;;6.33;3.67;;;;;11.96;63.45;101301.16;5017561;28;45632;-84
2022/03/12 08:22:30;;;;;;;;;3.00;3.00;;;;;11.92;63.24;101299.34;5021159;28;45615;-84
2022/03/12 08:24:56;;;;;;;;;4.33;4.33;;;;;11.94;63.30;101294.97;5020463;28;45559;-83
2022/03/12 08:27:21;;;;;;;;;3.00;3.00;;;;;11.99;63.27;101308.28;5016027;28;47284;-83
2022/03/12 08:29:46;;;;;;;;;6.33;4.00;;;;;12.00;63.30;101321.50;5031526;28;45506;-85
2022/03/12 08:32:12;;;;;;;;;4.67;4.00;;;;;12.00;63.13;101321.50;5031103;28;55796;-84
2022/03/12 08:34:37;;;;;;;;;4.50;4.00;;;;;11.99;63.09;101325.03;5019738;28;45525;-84
2022/03/12 08:37:04;;;;;;;;;4.00;4.00;;;;;12.03;63.12;101323.28;5023870;28;46453;-84
2022/03/12 08:39:29;;;;;;;;;3.33;3.33;;;;;12.06;63.03;101332.19;5028955;28;45483;-84
2022/03/12 08:41:54;;;;;;;;;4.00;3.00;;;;;12.10;63.16;101322.53;5000380;28;45570;-83
2022/03/12 08:44:20;;;;;;;;;7.00;4.00;;;;;12.19;63.11;101334.97;5035999;28;45708;-85
2022/03/12 08:46:46;;;;;;;;;2.67;2.67;;;;;12.23;63.09;101324.44;5035486;28;54232;-82
2022/03/12 08:49:12;;;;;;;;;5.67;3.00;;;;;12.29;62.69;101329.81;5020907;28;45539;-83
2022/03/12 08:51:38;;;;;;;;;4.00;4.00;;;;;12.30;62.58;101323.66;5039933;28;45365;-86
2022/03/12 08:54:04;;;;;;;;;6.25;6.25;;;;;12.34;62.40;101324.56;5036325;28;45334;-79
2022/03/12 08:56:30;;;;;;;;;5.00;4.00;;;;;12.35;62.59;101328.97;5024281;28;47242;-78
2022/03/12 08:58:55;;;;;;;;;6.00;3.33;;;;;12.23;62.24;101329.72;5031695;28;45387;-77
2022/03/12 09:01:21;;;;;;;;;8.67;4.00;;;;;12.09;62.62;101322.47;5021248;28;45423;-78
2022/03/12 09:03:46;;;;;;;;;4.00;3.00;;;;;11.94;62.82;101325.84;5021273;28;45624;-80
2022/03/12 09:06:12;;;;;;;;;4.00;4.00;;;;;11.86;63.17;101320.44;5037694;28;46313;-76
2022/03/12 09:08:37;;;;;;;;;8.00;4.00;;;;;11.75;64.09;101327.31;5014307;28;45656;-77
2022/03/12 09:11:03;;;;;;;;;6.33;4.33;;;;;11.70;64.42;101331.63;5022043;28;45421;-79
2022/03/12 09:13:28;;;;;;;;;7.00;5.00;;;;;11.64;64.43;101326.25;5006245;28;51574;-77
2022/03/12 09:15:54;;;;;;;;;5.00;3.33;;;;;11.55;64.52;101319.97;5029016;28;48339;-77
2022/03/12 09:18:20;;;;;;;;;4.33;3.00;;;;;11.55;64.57;101319.97;5028269;28;45470;-79
2022/03/12 09:20:47;;;;;;;;;5.33;4.67;;;;;11.55;65.00;101313.78;5019986;28;45196;-79
2022/03/12 09:23:17;;;;;;;;;6.33;5.00;;;;;11.57;65.24;101327.94;5019164;28;45781;-83
2022/03/12 09:25:43;;;;;;;;;5.67;4.00;;;;;11.63;64.99;101319.19;5000002;28;46315;-83
2022/03/12 09:28:09;;;;;;;;;7.67;5.00;;;;;11.62;65.73;101314.78;5018178;28;45382;-79
2022/03/12 09:30:35;;;;;;;;;8.67;4.00;;;;;11.64;65.41;101319.22;5015006;28;45442;-81
2022/03/12 09:33:00;;;;;;;;;5.00;3.67;;;;;11.75;65.28;101325.53;5016213;28;45449;-83
2022/03/12 09:35:26;;;;;;;;;3.67;3.33;;;;;11.70;64.83;101316.66;5011213;28;47561;-80
2022/03/12 09:37:52;;;;;;;;;5.67;5.00;;;;;11.80;64.86;101320.31;5016757;28;45484;-82
2022/03/12 09:40:17;;;;;;;;;4.00;4.00;;;;;11.90;64.86;101324.03;5016735;28;45365;-81
2022/03/12 09:42:43;;;;;;;;;6.33;5.00;;;;;11.96;64.83;101330.28;5021235;28;45783;-79
2022/03/12 09:45:09;;;;;;;;;5.00;4.00;;;;;12.03;64.65;101318.88;4994317;28;46772;-79
2022/03/12 09:47:34;;;;;;;;;3.67;3.67;;;;;12.13;64.80;101325.19;5026030;28;45440;-80
2022/03/12 09:50:00;;;;;;;;;5.00;4.00;;;;;12.20;64.48;101324.41;5000970;28;45497;-80
2022/03/12 09:52:25;;;;;;;;;4.00;4.00;;;;;12.26;63.75;101321.84;4987062;28;46356;-82
2022/03/12 09:54:50;;;;;;;;;3.00;3.00;;;;;12.27;63.63;101317.44;5011979;28;46775;-80
2022/03/12 09:57:16;;;;;;;;;3.33;3.33;;;;;12.32;63.61;101324.56;5012757;28;45823;-80
2022/03/12 09:59:42;;;;;;;;;5.00;4.00;;;;;12.36;63.76;101321.94;5015856;28;48530;-79
2022/03/12 10:02:08;;;;;;;;;6.33;5.67;;;;;12.32;63.82;101305.13;5011454;28;45709;-78
2022/03/12 10:04:34;;;;;;;;;5.00;4.00;;;;;12.39;64.22;101299.03;5010768;28;52282;-81
2022/03/12 10:06:59;;;;;;;;;4.00;3.00;;;;;12.51;63.45;101307.09;5012180;28;45546;-81
2022/03/12 10:09:24;;;;;;;;;6.33;4.67;;;;;12.55;63.43;101302.72;5011401;28;45586;-84
2022/03/12 10:11:53;;;;;;;;;4.00;4.00;;;;;12.51;63.97;101295.63;5016341;28;46106;-82
2022/03/12 10:14:20;;;;;;;;;5.00;5.00;;;;;12.71;63.06;101320.56;5012829;28;48363;-81
2022/03/12 10:16:45;;;;;;;;;4.33;4.33;;;;;12.76;63.35;101304.72;5011895;28;45484;-81
2022/03/12 10:19:10;;;;;;;;;5.00;4.00;;;;;12.85;63.01;101305.69;5018049;28;46009;-84
2022/03/12 10:21:42;;;;;;;;;2.00;2.00;;;;;12.90;62.79;101310.16;5012273;28;45859;-83
2022/03/12 10:24:08;;;;;;;;;7.33;5.00;;;;;12.98;63.06;101298.72;5001234;28;45894;-81
2022/03/12 10:26:34;;;;;;;;;5.00;4.00;;;;;13.08;62.92;101299.69;5009778;28;45549;-81
2022/03/12 10:28:59;;;;;;;;;9.00;4.00;;;;;13.19;62.56;101302.44;5010152;28;45810;-80
2022/03/12 10:31:25;;;;;;;;;7.00;4.00;;;;;13.28;62.48;101292.81;5011515;28;50510;-79
2022/03/12 10:33:50;;;;;;;;;6.33;3.33;;;;;13.34;62.35;101287.56;5012861;28;46398;-78
2022/03/12 10:36:17;;;;;;;;;7.00;4.00;;;;;13.40;62.31;101278.75;4997522;28;45530;-81
2022/03/12 10:38:47;;;;;;;;;2.67;2.00;;;;;13.46;62.28;101277.91;5009457;28;45497;-76
2022/03/12 10:41:13;;;;;;;;;6.67;2.00;;;;;13.58;61.63;101288.56;5011297;28;45528;-78
2022/03/12 10:43:58;;;;;;;;;6.00;2.67;;;;;13.51;61.88;101266.44;4996058;28;45679;-79
2022/03/12 10:46:27;;;;;;;;;4.00;3.00;;;;;13.68;62.04;101287.75;5016582;28;45886;-79
2022/03/12 10:48:56;;;;;;;;;4.67;4.00;;;;;13.78;61.41;101292.22;5013278;28;45594;-79
2022/03/12 10:51:25;;;;;;;;;6.00;3.33;;;;;13.84;61.19;101294.91;5012653;28;45439;-80
2022/03/12 10:53:51;;;;;;;;;5.67;3.00;;;;;13.90;61.52;101283.44;5010433;28;46584;-79
2022/03/12 10:56:16;;;;;;;;;2.33;2.00;;;;;13.99;61.42;101282.59;5013081;28;49608;-78
2022/03/12 10:58:42;;;;;;;;;5.00;3.00;;;;;14.03;61.23;101285.28;5019820;28;45490;-78
2022/03/12 11:01:07;;;;;;;;;3.00;3.00;;;;;14.08;60.64;101293.28;5010155;28;45662;-77
2022/03/12 11:03:35;;;;;;;;;2.00;2.00;;;;;14.09;60.19;101287.06;5013336;28;46971;-78
2022/03/12 11:06:01;;;;;;;;;3.00;3.00;;;;;14.10;60.63;101279.09;5014551;28;45520;-81
2022/03/12 11:08:30;;;;;;;;;3.00;3.00;;;;;14.16;60.51;101265.84;4994520;28;45526;-80
2022/03/12 11:11:06;;;;;;;;;6.00;3.00;;;;;14.26;60.54;101266.75;5015519;28;45588;-79
2022/03/12 11:13:49;;;;;;;;;6.67;3.33;;;;;14.35;60.33;101268.56;5015665;28;46507;-78
2022/03/12 11:16:18;;;;;;;;;4.00;3.00;;;;;14.42;60.13;101259.72;5010918;28;45517;-79
2022/03/12 11:18:52;;;;;;;;;4.33;4.00;;;;;14.54;59.95;101256.22;5017987;28;45723;-79
2022/03/12 11:21:37;;;;;;;;;3.00;3.00;;;;;14.64;59.83;101266.88;5005277;28;45517;-80
2022/03/12 11:24:05;;;;;;;;;5.33;3.00;;;;;14.65;59.66;101251.84;5008374;28;46766;-79
2022/03/12 11:26:31;;;;;;;;;7.00;4.00;;;;;14.76;59.72;101258.03;5012013;28;45470;-82